^^
Your Local Weather - Clay, NY Station Historical Data
Daily Summary for January 16, 2018 Units:  Both    English   Metric
« Previous Day
Next Day »
Daily Weekly Monthly Yearly Custom
  High: Low: Average:
Temperature: 27.8 °F /  -2.3 °C 15.5 °F /  -9.2 °C 21.4 °F /  -5.9 °C
Dew Point: 25.8 °F /  -3.4 °C 13.1 °F /  -10.5 °C 19.4 °F /  -7 °C
Humidity: 93% 90% 92%
Wind Speed: 3.0mph /  4.8km/h - 0.7mph /  1.1km/h
Wind Gust: 5.0mph /  8km/h - -
Wind- - SE
Pressure: 30.41 in /  1029.7 hPa 30.34 in /  1027.3 hPa -
Precipitation: 0.00 in /  0 mm    
Historical Graphs
 
 
Tabular Data for January 16, 2018
Time Temperature Dew Point Pressure Wind Wind Speed Wind Gust Humidity Rainfall Rate (Hourly) solar
00:04 16.6 °F /  -8.6 °C 14.2 °F /  -9.9 °C 30.40in /  1029.3hPa ENE 2.0mph /  3.2km/h 4.0mph /  6.4km/h 90% 0.00in /  0mm 0 W/m2
00:12 16.6 °F /  -8.6 °C 14.2 °F /  -9.9 °C 30.39in /  1029hPa ENE 2.0mph /  3.2km/h 2.0mph /  3.2km/h 90% 0.00in /  0mm 0 W/m2
00:22 16.6 °F /  -8.6 °C 14.2 °F /  -9.9 °C 30.39in /  1029hPa ESE 1.0mph /  1.6km/h 1.0mph /  1.6km/h 90% 0.00in /  0mm 0 W/m2
00:28 16.6 °F /  -8.6 °C 14.2 °F /  -9.9 °C 30.38in /  1028.7hPa ENE 2.0mph /  3.2km/h 4.0mph /  6.4km/h 90% 0.00in /  0mm 0 W/m2
00:34 16.6 °F /  -8.6 °C 14.2 °F /  -9.9 °C 30.38in /  1028.7hPa ENE 3.0mph /  4.8km/h 3.0mph /  4.8km/h 90% 0.00in /  0mm 0 W/m2
00:40 16.6 °F /  -8.6 °C 14.2 °F /  -9.9 °C 30.38in /  1028.7hPa SE 2.0mph /  3.2km/h 2.0mph /  3.2km/h 90% 0.00in /  0mm 0 W/m2
00:48 16.6 °F /  -8.6 °C 14.2 °F /  -9.9 °C 30.38in /  1028.7hPa ENE 2.0mph /  3.2km/h 2.0mph /  3.2km/h 90% 0.00in /  0mm 0 W/m2
00:54 16.6 °F /  -8.6 °C 14.2 °F /  -9.9 °C 30.38in /  1028.7hPa East 3.0mph /  4.8km/h 5.0mph /  8km/h 90% 0.00in /  0mm 0 W/m2
01:00 16.6 °F /  -8.6 °C 14.2 °F /  -9.9 °C 30.37in /  1028.3hPa East 3.0mph /  4.8km/h 3.0mph /  4.8km/h 90% 0.00in /  0mm 0 W/m2
01:10 16.6 °F /  -8.6 °C 14.2 °F /  -9.9 °C 30.37in /  1028.3hPa East 1.0mph /  1.6km/h 3.0mph /  4.8km/h 90% 0.00in /  0mm 0 W/m2
01:16 16.6 °F /  -8.6 °C 14.2 °F /  -9.9 °C 30.37in /  1028.3hPa ENE 2.0mph /  3.2km/h 3.0mph /  4.8km/h 90% 0.00in /  0mm 0 W/m2
01:28 16.6 °F /  -8.6 °C 14.2 °F /  -9.9 °C 30.37in /  1028.3hPa ENE 2.0mph /  3.2km/h 3.0mph /  4.8km/h 90% 0.00in /  0mm 0 W/m2
01:38 16.5 °F /  -8.6 °C 14.1 °F /  -9.9 °C 30.36in /  1028hPa East 3.0mph /  4.8km/h 5.0mph /  8km/h 90% 0.00in /  0mm 0 W/m2
01:50 16.5 °F /  -8.6 °C 14.1 °F /  -9.9 °C 30.37in /  1028.3hPa ENE 3.0mph /  4.8km/h 3.0mph /  4.8km/h 90% 0.00in /  0mm 0 W/m2
01:56 16.4 °F /  -8.7 °C 14.0 °F /  -10 °C 30.37in /  1028.3hPa ENE 3.0mph /  4.8km/h 4.0mph /  6.4km/h 90% 0.00in /  0mm 0 W/m2
02:02 16.4 °F /  -8.7 °C 14.0 °F /  -10 °C 30.37in /  1028.3hPa East 3.0mph /  4.8km/h 3.0mph /  4.8km/h 90% 0.00in /  0mm 0 W/m2
02:08 16.4 °F /  -8.7 °C 14.0 °F /  -10 °C 30.37in /  1028.3hPa East 3.0mph /  4.8km/h 5.0mph /  8km/h 90% 0.00in /  0mm 0 W/m2
02:14 16.4 °F /  -8.7 °C 14.0 °F /  -10 °C 30.36in /  1028hPa ENE 3.0mph /  4.8km/h 5.0mph /  8km/h 90% 0.00in /  0mm 0 W/m2
02:22 16.4 °F /  -8.7 °C 14.0 °F /  -10 °C 30.37in /  1028.3hPa ENE 3.0mph /  4.8km/h 3.0mph /  4.8km/h 90% 0.00in /  0mm 0 W/m2
02:30 16.4 °F /  -8.7 °C 14.0 °F /  -10 °C 30.37in /  1028.3hPa ENE 2.0mph /  3.2km/h 2.0mph /  3.2km/h 90% 0.00in /  0mm 0 W/m2
02:38 16.4 °F /  -8.7 °C 14.0 °F /  -10 °C 30.37in /  1028.3hPa East 2.0mph /  3.2km/h 2.0mph /  3.2km/h 90% 0.00in /  0mm 0 W/m2
02:44 16.3 °F /  -8.7 °C 13.9 °F /  -10.1 °C 30.37in /  1028.3hPa East 1.0mph /  1.6km/h 2.0mph /  3.2km/h 90% 0.00in /  0mm 0 W/m2
02:52 16.3 °F /  -8.7 °C 13.9 °F /  -10.1 °C 30.37in /  1028.3hPa NE 1.0mph /  1.6km/h 2.0mph /  3.2km/h 90% 0.00in /  0mm 0 W/m2
02:58 16.2 °F /  -8.8 °C 13.8 °F /  -10.1 °C 30.37in /  1028.3hPa NE 1.0mph /  1.6km/h 1.0mph /  1.6km/h 90% 0.00in /  0mm 0 W/m2
03:04 16.2 °F /  -8.8 °C 13.8 °F /  -10.1 °C 30.37in /  1028.3hPa East 1.0mph /  1.6km/h 5.0mph /  8km/h 90% 0.00in /  0mm 0 W/m2
03:14 16.2 °F /  -8.8 °C 13.8 °F /  -10.1 °C 30.37in /  1028.3hPa East 1.0mph /  1.6km/h 2.0mph /  3.2km/h 90% 0.00in /  0mm 0 W/m2
03:20 16.1 °F /  -8.8 °C 13.7 °F /  -10.2 °C 30.37in /  1028.3hPa ENE 1.0mph /  1.6km/h 1.0mph /  1.6km/h 90% 0.00in /  0mm 0 W/m2
03:26 16.1 °F /  -8.8 °C 13.7 °F /  -10.2 °C 30.37in /  1028.3hPa East 2.0mph /  3.2km/h 5.0mph /  8km/h 90% 0.00in /  0mm 0 W/m2
03:32 16.1 °F /  -8.8 °C 13.7 °F /  -10.2 °C 30.37in /  1028.3hPa ENE 2.0mph /  3.2km/h 3.0mph /  4.8km/h 90% 0.00in /  0mm 0 W/m2
03:42 16.2 °F /  -8.8 °C 13.8 °F /  -10.1 °C 30.37in /  1028.3hPa East 1.0mph /  1.6km/h 1.0mph /  1.6km/h 90% 0.00in /  0mm 0 W/m2
03:48 16.2 °F /  -8.8 °C 14.0 °F /  -10 °C 30.37in /  1028.3hPa ENE 1.0mph /  1.6km/h 1.0mph /  1.6km/h 91% 0.00in /  0mm 0 W/m2
03:54 16.2 °F /  -8.8 °C 14.0 °F /  -10 °C 30.37in /  1028.3hPa ENE 1.0mph /  1.6km/h 2.0mph /  3.2km/h 91% 0.00in /  0mm 0 W/m2
04:00 16.3 °F /  -8.7 °C 14.1 °F /  -9.9 °C 30.37in /  1028.3hPa ENE 1.0mph /  1.6km/h 1.0mph /  1.6km/h 91% 0.00in /  0mm 0 W/m2
04:06 16.3 °F /  -8.7 °C 14.1 °F /  -9.9 °C 30.37in /  1028.3hPa ENE 1.0mph /  1.6km/h 2.0mph /  3.2km/h 91% 0.00in /  0mm 0 W/m2
04:12 16.3 °F /  -8.7 °C 14.1 °F /  -9.9 °C 30.37in /  1028.3hPa ENE 1.0mph /  1.6km/h 1.0mph /  1.6km/h 91% 0.00in /  0mm 0 W/m2
04:18 16.3 °F /  -8.7 °C 14.1 °F /  -9.9 °C 30.37in /  1028.3hPa ENE 1.0mph /  1.6km/h 1.0mph /  1.6km/h 91% 0.00in /  0mm 0 W/m2
04:24 16.3 °F /  -8.7 °C 14.1 °F /  -9.9 °C 30.37in /  1028.3hPa East 1.0mph /  1.6km/h 1.0mph /  1.6km/h 91% 0.00in /  0mm 0 W/m2
04:30 16.3 °F /  -8.7 °C 14.1 °F /  -9.9 °C 30.37in /  1028.3hPa East 2.0mph /  3.2km/h 2.0mph /  3.2km/h 91% 0.00in /  0mm 0 W/m2
04:36 16.3 °F /  -8.7 °C 13.9 °F /  -10.1 °C 30.37in /  1028.3hPa East 1.0mph /  1.6km/h 2.0mph /  3.2km/h 90% 0.00in /  0mm 0 W/m2
04:42 16.2 °F /  -8.8 °C 13.8 °F /  -10.1 °C 30.37in /  1028.3hPa East 1.0mph /  1.6km/h 1.0mph /  1.6km/h 90% 0.00in /  0mm 0 W/m2
04:48 16.1 °F /  -8.8 °C 13.7 °F /  -10.2 °C 30.37in /  1028.3hPa East 1.0mph /  1.6km/h 2.0mph /  3.2km/h 90% 0.00in /  0mm 0 W/m2
04:54 16.1 °F /  -8.8 °C 13.7 °F /  -10.2 °C 30.37in /  1028.3hPa East 1.0mph /  1.6km/h 1.0mph /  1.6km/h 90% 0.00in /  0mm 0 W/m2
05:00 16.0 °F /  -8.9 °C 13.6 °F /  -10.2 °C 30.37in /  1028.3hPa Calm     90% 0.00in /  0mm 0 W/m2
05:06 15.9 °F /  -8.9 °C 13.5 °F /  -10.3 °C 30.37in /  1028.3hPa Calm     90% 0.00in /  0mm 0 W/m2
05:12 15.7 °F /  -9.1 °C 13.3 °F /  -10.4 °C 30.37in /  1028.3hPa Calm     90% 0.00in /  0mm 0 W/m2
05:18 15.6 °F /  -9.1 °C 13.2 °F /  -10.4 °C 30.37in /  1028.3hPa Calm   2.0mph /  3.2km/h 90% 0.00in /  0mm 0 W/m2
05:24 15.5 °F /  -9.2 °C 13.1 °F /  -10.5 °C 30.37in /  1028.3hPa East 1.0mph /  1.6km/h 1.0mph /  1.6km/h 90% 0.00in /  0mm 0 W/m2
05:34 15.5 °F /  -9.2 °C 13.1 °F /  -10.5 °C 30.37in /  1028.3hPa ENE 1.0mph /  1.6km/h 3.0mph /  4.8km/h 90% 0.00in /  0mm 0 W/m2
05:40 15.5 °F /  -9.2 °C 13.1 °F /  -10.5 °C 30.37in /  1028.3hPa ENE 2.0mph /  3.2km/h 2.0mph /  3.2km/h 90% 0.00in /  0mm 0 W/m2
05:46 15.5 °F /  -9.2 °C 13.1 °F /  -10.5 °C 30.37in /  1028.3hPa ENE 1.0mph /  1.6km/h 2.0mph /  3.2km/h 90% 0.00in /  0mm 0 W/m2
05:52 15.6 °F /  -9.1 °C 13.2 °F /  -10.4 °C 30.37in /  1028.3hPa ENE 1.0mph /  1.6km/h 1.0mph /  1.6km/h 90% 0.00in /  0mm 0 W/m2
05:58 15.6 °F /  -9.1 °C 13.2 °F /  -10.4 °C 30.37in /  1028.3hPa Calm   1.0mph /  1.6km/h 90% 0.00in /  0mm 0 W/m2
06:04 15.7 °F /  -9.1 °C 13.3 °F /  -10.4 °C 30.37in /  1028.3hPa ENE 1.0mph /  1.6km/h 1.0mph /  1.6km/h 90% 0.00in /  0mm 0 W/m2
06:10 15.8 °F /  -9 °C 13.4 °F /  -10.3 °C 30.38in /  1028.7hPa ENE 1.0mph /  1.6km/h 1.0mph /  1.6km/h 90% 0.00in /  0mm 0 W/m2
06:18 15.9 °F /  -8.9 °C 13.5 °F /  -10.3 °C 30.38in /  1028.7hPa Calm   2.0mph /  3.2km/h 90% 0.00in /  0mm 0 W/m2
06:24 16.0 °F /  -8.9 °C 13.6 °F /  -10.2 °C 30.38in /  1028.7hPa ENE 1.0mph /  1.6km/h 2.0mph /  3.2km/h 90% 0.00in /  0mm 0 W/m2
06:30 16.1 °F /  -8.8 °C 13.7 °F /  -10.2 °C 30.37in /  1028.3hPa ENE 1.0mph /  1.6km/h 1.0mph /  1.6km/h 90% 0.00in /  0mm 0 W/m2
06:36 16.2 °F /  -8.8 °C 13.8 °F /  -10.1 °C 30.38in /  1028.7hPa ENE 1.0mph /  1.6km/h 1.0mph /  1.6km/h 90% 0.00in /  0mm 0 W/m2
06:42 16.3 °F /  -8.7 °C 13.9 °F /  -10.1 °C 30.39in /  1029hPa Calm     90% 0.00in /  0mm 0 W/m2
06:48 16.4 °F /  -8.7 °C 14.2 °F /  -9.9 °C 30.39in /  1029hPa Calm   1.0mph /  1.6km/h 91% 0.00in /  0mm 0 W/m2
06:54 16.5 °F /  -8.6 °C 14.3 °F /  -9.8 °C 30.39in /  1029hPa Calm   1.0mph /  1.6km/h 91% 0.00in /  0mm 0 W/m2
07:00 16.6 °F /  -8.6 °C 14.4 °F /  -9.8 °C 30.39in /  1029hPa Calm   1.0mph /  1.6km/h 91% 0.00in /  0mm 0 W/m2
07:06 16.6 °F /  -8.6 °C 14.4 °F /  -9.8 °C 30.39in /  1029hPa Calm   2.0mph /  3.2km/h 91% 0.00in /  0mm 0 W/m2
07:12 16.8 °F /  -8.4 °C 14.6 °F /  -9.7 °C 30.39in /  1029hPa Calm     91% 0.00in /  0mm 0 W/m2
07:18 16.8 °F /  -8.4 °C 14.6 °F /  -9.7 °C 30.39in /  1029hPa Calm   2.0mph /  3.2km/h 91% 0.00in /  0mm 0 W/m2
07:26 16.9 °F /  -8.4 °C 14.7 °F /  -9.6 °C 30.39in /  1029hPa Calm     91% 0.00in /  0mm 0 W/m2
07:32 17.0 °F /  -8.3 °C 14.8 °F /  -9.6 °C 30.39in /  1029hPa Calm     91% 0.00in /  0mm 0 W/m2
07:40 17.1 °F /  -8.3 °C 14.9 °F /  -9.5 °C 30.39in /  1029hPa Calm     91% 0.00in /  0mm 0 W/m2
07:46 17.2 °F /  -8.2 °C 15.0 °F /  -9.4 °C 30.39in /  1029hPa Calm     91% 0.00in /  0mm 0 W/m2
07:52 17.3 °F /  -8.2 °C 15.1 °F /  -9.4 °C 30.39in /  1029hPa Calm     91% 0.00in /  0mm 0 W/m2
07:58 17.3 °F /  -8.2 °C 15.1 °F /  -9.4 °C 30.39in /  1029hPa Calm   1.0mph /  1.6km/h 91% 0.00in /  0mm 0 W/m2
08:04 17.4 °F /  -8.1 °C 15.2 °F /  -9.3 °C 30.39in /  1029hPa Calm     91% 0.00in /  0mm 0 W/m2
08:12 17.5 °F /  -8.1 °C 15.3 °F /  -9.3 °C 30.39in /  1029hPa Calm   1.0mph /  1.6km/h 91% 0.00in /  0mm 5 W/m2
08:20 17.6 °F /  -8 °C 15.4 °F /  -9.2 °C 30.39in /  1029hPa ENE 1.0mph /  1.6km/h 1.0mph /  1.6km/h 91% 0.00in /  0mm 11 W/m2
08:26 17.7 °F /  -7.9 °C 15.5 °F /  -9.2 °C 30.39in /  1029hPa Calm   1.0mph /  1.6km/h 91% 0.00in /  0mm 16 W/m2
08:32 17.8 °F /  -7.9 °C 15.6 °F /  -9.1 °C 30.40in /  1029.3hPa Calm   2.0mph /  3.2km/h 91% 0.00in /  0mm 18 W/m2
08:38 17.9 °F /  -7.8 °C 15.7 °F /  -9.1 °C 30.40in /  1029.3hPa Calm   2.0mph /  3.2km/h 91% 0.00in /  0mm 19 W/m2
08:44 18.1 °F /  -7.7 °C 15.9 °F /  -8.9 °C 30.40in /  1029.3hPa Calm   2.0mph /  3.2km/h 91% 0.00in /  0mm 26 W/m2
08:52 18.3 °F /  -7.6 °C 16.1 °F /  -8.8 °C 30.39in /  1029hPa Calm   1.0mph /  1.6km/h 91% 0.00in /  0mm 35 W/m2
08:58 18.4 °F /  -7.6 °C 16.2 °F /  -8.8 °C 30.40in /  1029.3hPa Calm   2.0mph /  3.2km/h 91% 0.00in /  0mm 47 W/m2
09:06 18.6 °F /  -7.4 °C 16.4 °F /  -8.7 °C 30.40in /  1029.3hPa ESE 1.0mph /  1.6km/h 2.0mph /  3.2km/h 91% 0.00in /  0mm 54 W/m2
09:12 18.9 °F /  -7.3 °C 16.7 °F /  -8.5 °C 30.40in /  1029.3hPa ESE 1.0mph /  1.6km/h 2.0mph /  3.2km/h 91% 0.00in /  0mm 51 W/m2
09:18 19.1 °F /  -7.2 °C 16.9 °F /  -8.4 °C 30.40in /  1029.3hPa ESE 1.0mph /  1.6km/h 2.0mph /  3.2km/h 91% 0.00in /  0mm 39 W/m2
09:26 19.2 °F /  -7.1 °C 17.0 °F /  -8.3 °C 30.40in /  1029.3hPa Calm   1.0mph /  1.6km/h 91% 0.00in /  0mm 40 W/m2
09:32 19.4 °F /  -7 °C 17.2 °F /  -8.2 °C 30.41in /  1029.7hPa Calm     91% 0.00in /  0mm 33 W/m2
09:38 19.5 °F /  -6.9 °C 17.3 °F /  -8.2 °C 30.41in /  1029.7hPa Calm   2.0mph /  3.2km/h 91% 0.00in /  0mm 37 W/m2
09:44 19.6 °F /  -6.9 °C 17.4 °F /  -8.1 °C 30.41in /  1029.7hPa Calm   2.0mph /  3.2km/h 91% 0.00in /  0mm 69 W/m2
09:50 19.8 °F /  -6.8 °C 17.6 °F /  -8 °C 30.41in /  1029.7hPa ESE 1.0mph /  1.6km/h 1.0mph /  1.6km/h 91% 0.00in /  0mm 69 W/m2
09:56 20.0 °F /  -6.7 °C 17.8 °F /  -7.9 °C 30.40in /  1029.3hPa ESE 1.0mph /  1.6km/h 1.0mph /  1.6km/h 91% 0.00in /  0mm 86 W/m2
10:02 20.2 °F /  -6.6 °C 18.0 °F /  -7.8 °C 30.40in /  1029.3hPa ESE 1.0mph /  1.6km/h 1.0mph /  1.6km/h 91% 0.00in /  0mm 67 W/m2
10:08 20.6 °F /  -6.3 °C 18.4 °F /  -7.6 °C 30.41in /  1029.7hPa Calm   1.0mph /  1.6km/h 91% 0.00in /  0mm 56 W/m2
10:14 20.8 °F /  -6.2 °C 18.6 °F /  -7.4 °C 30.41in /  1029.7hPa ESE 1.0mph /  1.6km/h 1.0mph /  1.6km/h 91% 0.00in /  0mm 63 W/m2
10:20 21.0 °F /  -6.1 °C 19.0 °F /  -7.2 °C 30.41in /  1029.7hPa ESE 1.0mph /  1.6km/h 1.0mph /  1.6km/h 92% 0.00in /  0mm 77 W/m2
10:26 21.2 °F /  -6 °C 19.2 °F /  -7.1 °C 30.41in /  1029.7hPa Calm   1.0mph /  1.6km/h 92% 0.00in /  0mm 118 W/m2
10:32 21.8 °F /  -5.7 °C 19.8 °F /  -6.8 °C 30.41in /  1029.7hPa Calm     92% 0.00in /  0mm 158 W/m2
10:38 22.5 °F /  -5.3 °C 20.5 °F /  -6.4 °C 30.41in /  1029.7hPa Calm     92% 0.00in /  0mm 81 W/m2
10:44 22.9 °F /  -5.1 °C 20.9 °F /  -6.2 °C 30.41in /  1029.7hPa Calm     92% 0.00in /  0mm 77 W/m2
10:52 23.0 °F /  -5 °C 21.0 °F /  -6.1 °C 30.40in /  1029.3hPa Calm     92% 0.00in /  0mm 95 W/m2
10:58 23.2 °F /  -4.9 °C 21.2 °F /  -6 °C 30.41in /  1029.7hPa Calm     92% 0.00in /  0mm 84 W/m2
11:06 23.4 °F /  -4.8 °C 21.4 °F /  -5.9 °C 30.40in /  1029.3hPa Calm     92% 0.00in /  0mm 58 W/m2
11:12 23.7 °F /  -4.6 °C 21.7 °F /  -5.7 °C 30.40in /  1029.3hPa Calm     92% 0.00in /  0mm 76 W/m2
11:24 23.9 °F /  -4.5 °C 21.9 °F /  -5.6 °C 30.40in /  1029.3hPa Calm   1.0mph /  1.6km/h 92% 0.00in /  0mm 62 W/m2
11:30 24.0 °F /  -4.4 °C 22.0 °F /  -5.6 °C 30.40in /  1029.3hPa Calm     92% 0.00in /  0mm 104 W/m2
11:36 24.2 °F /  -4.3 °C 22.2 °F /  -5.4 °C 30.40in /  1029.3hPa Calm     92% 0.00in /  0mm 60 W/m2
11:42 24.5 °F /  -4.2 °C 22.5 °F /  -5.3 °C 30.39in /  1029hPa Calm   2.0mph /  3.2km/h 92% 0.00in /  0mm 90 W/m2
11:48 24.8 °F /  -4 °C 22.8 °F /  -5.1 °C 30.39in /  1029hPa Calm   2.0mph /  3.2km/h 92% 0.00in /  0mm 93 W/m2
12:02 25.4 °F /  -3.7 °C 23.4 °F /  -4.8 °C 30.38in /  1028.7hPa Calm     92% 0.00in /  0mm 192 W/m2
12:08 25.9 °F /  -3.4 °C 23.9 °F /  -4.5 °C 30.38in /  1028.7hPa Calm     92% 0.00in /  0mm 116 W/m2
12:14 26.3 °F /  -3.2 °C 24.6 °F /  -4.1 °C 30.38in /  1028.7hPa Calm   1.0mph /  1.6km/h 93% 0.00in /  0mm 113 W/m2
12:22 26.7 °F /  -2.9 °C 24.9 °F /  -3.9 °C 30.37in /  1028.3hPa SSW 1.0mph /  1.6km/h 1.0mph /  1.6km/h 93% 0.00in /  0mm 128 W/m2
12:28 26.9 °F /  -2.8 °C 25.1 °F /  -3.8 °C 30.37in /  1028.3hPa South 1.0mph /  1.6km/h 3.0mph /  4.8km/h 93% 0.00in /  0mm 118 W/m2
12:34 27.1 °F /  -2.7 °C 25.3 °F /  -3.7 °C 30.37in /  1028.3hPa SSW 1.0mph /  1.6km/h 1.0mph /  1.6km/h 93% 0.00in /  0mm 116 W/m2
12:40 27.2 °F /  -2.7 °C 25.4 °F /  -3.7 °C 30.37in /  1028.3hPa SSW 1.0mph /  1.6km/h 3.0mph /  4.8km/h 93% 0.00in /  0mm 91 W/m2
12:52 27.2 °F /  -2.7 °C 25.2 °F /  -3.8 °C 30.37in /  1028.3hPa WSW 2.0mph /  3.2km/h 5.0mph /  8km/h 92% 0.00in /  0mm 88 W/m2
12:58 27.1 °F /  -2.7 °C 25.1 °F /  -3.8 °C 30.37in /  1028.3hPa WSW 3.0mph /  4.8km/h 5.0mph /  8km/h 92% 0.00in /  0mm 76 W/m2
13:04 27.1 °F /  -2.7 °C 25.1 °F /  -3.8 °C 30.36in /  1028hPa WSW 2.0mph /  3.2km/h 3.0mph /  4.8km/h 92% 0.00in /  0mm 90 W/m2
13:12 27.1 °F /  -2.7 °C 25.1 °F /  -3.8 °C 30.36in /  1028hPa SW 2.0mph /  3.2km/h 4.0mph /  6.4km/h 92% 0.00in /  0mm 72 W/m2
13:18 27.1 °F /  -2.7 °C 25.1 °F /  -3.8 °C 30.36in /  1028hPa SW 3.0mph /  4.8km/h 4.0mph /  6.4km/h 92% 0.00in /  0mm 95 W/m2
13:24 27.2 °F /  -2.7 °C 25.2 °F /  -3.8 °C 30.36in /  1028hPa SW 2.0mph /  3.2km/h 2.0mph /  3.2km/h 92% 0.00in /  0mm 121 W/m2
13:30 27.3 °F /  -2.6 °C 25.3 °F /  -3.7 °C 30.36in /  1028hPa SW 1.0mph /  1.6km/h 4.0mph /  6.4km/h 92% 0.00in /  0mm 102 W/m2
13:36 27.5 °F /  -2.5 °C 25.5 °F /  -3.6 °C 30.36in /  1028hPa SW 1.0mph /  1.6km/h 4.0mph /  6.4km/h 92% 0.00in /  0mm 105 W/m2
13:42 27.6 °F /  -2.4 °C 25.6 °F /  -3.6 °C 30.36in /  1028hPa SW 1.0mph /  1.6km/h 2.0mph /  3.2km/h 92% 0.00in /  0mm 120 W/m2
13:50 27.6 °F /  -2.4 °C 25.3 °F /  -3.7 °C 30.35in /  1027.7hPa SW 2.0mph /  3.2km/h 2.0mph /  3.2km/h 91% 0.00in /  0mm 104 W/m2
14:02 27.7 °F /  -2.4 °C 25.7 °F /  -3.5 °C 30.36in /  1028hPa WSW 2.0mph /  3.2km/h 3.0mph /  4.8km/h 92% 0.00in /  0mm 98 W/m2
14:08 27.8 °F /  -2.3 °C 25.8 °F /  -3.4 °C 30.36in /  1028hPa WSW 2.0mph /  3.2km/h 3.0mph /  4.8km/h 92% 0.00in /  0mm 88 W/m2
14:14 27.7 °F /  -2.4 °C 25.7 °F /  -3.5 °C 30.36in /  1028hPa WSW 1.0mph /  1.6km/h 2.0mph /  3.2km/h 92% 0.00in /  0mm 88 W/m2
14:20 27.7 °F /  -2.4 °C 25.4 °F /  -3.7 °C 30.36in /  1028hPa Calm     91% 0.00in /  0mm 72 W/m2
14:26 27.6 °F /  -2.4 °C 25.3 °F /  -3.7 °C 30.36in /  1028hPa WSW 1.0mph /  1.6km/h 3.0mph /  4.8km/h 91% 0.00in /  0mm 72 W/m2
15:36 27.2 °F /  -2.7 °C 24.9 °F /  -3.9 °C 30.36in /  1028hPa WSW 1.0mph /  1.6km/h 2.0mph /  3.2km/h 91% 0.00in /  0mm 37 W/m2
15:42 27.1 °F /  -2.7 °C 24.8 °F /  -4 °C 30.37in /  1028.3hPa WSW 1.0mph /  1.6km/h 3.0mph /  4.8km/h 91% 0.00in /  0mm 30 W/m2
15:48 26.9 °F /  -2.8 °C 24.6 °F /  -4.1 °C 30.37in /  1028.3hPa WSW 2.0mph /  3.2km/h 4.0mph /  6.4km/h 91% 0.00in /  0mm 32 W/m2
15:53 26.8 °F /  -2.9 °C 24.8 °F /  -4 °C 30.37in /  1028.3hPa WSW 1.0mph /  1.6km/h 4.0mph /  6.4km/h 92% 0.00in /  0mm 25 W/m2
16:00 26.7 °F /  -2.9 °C 24.7 °F /  -4.1 °C 30.38in /  1028.7hPa WSW 1.0mph /  1.6km/h 1.0mph /  1.6km/h 92% 0.00in /  0mm 21 W/m2
16:06 26.5 °F /  -3.1 °C 24.5 °F /  -4.2 °C 30.38in /  1028.7hPa WSW 1.0mph /  1.6km/h 2.0mph /  3.2km/h 92% 0.00in /  0mm 18 W/m2
16:12 26.4 °F /  -3.1 °C 24.4 °F /  -4.2 °C 30.38in /  1028.7hPa WSW 1.0mph /  1.6km/h 1.0mph /  1.6km/h 92% 0.00in /  0mm 25 W/m2
16:18 26.4 °F /  -3.1 °C 24.4 °F /  -4.2 °C 30.37in /  1028.3hPa Calm   1.0mph /  1.6km/h 92% 0.00in /  0mm 18 W/m2
16:23 26.4 °F /  -3.1 °C 24.4 °F /  -4.2 °C 30.38in /  1028.7hPa Calm     92% 0.00in /  0mm 12 W/m2
16:30 26.3 °F /  -3.2 °C 24.3 °F /  -4.3 °C 30.38in /  1028.7hPa Calm     92% 0.00in /  0mm 9 W/m2
16:36 26.3 °F /  -3.2 °C 24.3 °F /  -4.3 °C 30.38in /  1028.7hPa Calm     92% 0.00in /  0mm 7 W/m2
16:42 26.2 °F /  -3.2 °C 24.5 °F /  -4.2 °C 30.38in /  1028.7hPa Calm   2.0mph /  3.2km/h 93% 0.00in /  0mm 5 W/m2
16:48 26.1 °F /  -3.3 °C 24.4 °F /  -4.2 °C 30.38in /  1028.7hPa Calm   2.0mph /  3.2km/h 93% 0.00in /  0mm 0 W/m2
16:54 26.1 °F /  -3.3 °C 24.4 °F /  -4.2 °C 30.38in /  1028.7hPa Calm     93% 0.00in /  0mm 0 W/m2
17:00 26.0 °F /  -3.3 °C 24.3 °F /  -4.3 °C 30.37in /  1028.3hPa Calm   2.0mph /  3.2km/h 93% 0.00in /  0mm 0 W/m2
17:06 26.0 °F /  -3.3 °C 24.3 °F /  -4.3 °C 30.37in /  1028.3hPa WSW 1.0mph /  1.6km/h 2.0mph /  3.2km/h 93% 0.00in /  0mm 0 W/m2
17:12 25.9 °F /  -3.4 °C 24.2 °F /  -4.3 °C 30.37in /  1028.3hPa Calm   1.0mph /  1.6km/h 93% 0.00in /  0mm 0 W/m2
17:18 25.9 °F /  -3.4 °C 24.2 °F /  -4.3 °C 30.38in /  1028.7hPa Calm   1.0mph /  1.6km/h 93% 0.00in /  0mm 0 W/m2
17:24 25.8 °F /  -3.4 °C 24.1 °F /  -4.4 °C 30.37in /  1028.3hPa Calm     93% 0.00in /  0mm 0 W/m2
17:30 25.8 °F /  -3.4 °C 24.1 °F /  -4.4 °C 30.37in /  1028.3hPa Calm     93% 0.00in /  0mm 0 W/m2
17:38 25.7 °F /  -3.5 °C 24.0 °F /  -4.4 °C 30.38in /  1028.7hPa Calm     93% 0.00in /  0mm 0 W/m2
17:44 25.6 °F /  -3.6 °C 23.9 °F /  -4.5 °C 30.38in /  1028.7hPa Calm     93% 0.00in /  0mm 0 W/m2
17:49 25.5 °F /  -3.6 °C 23.8 °F /  -4.6 °C 30.38in /  1028.7hPa Calm     93% 0.00in /  0mm 0 W/m2
17:56 25.5 °F /  -3.6 °C 23.8 °F /  -4.6 °C 30.38in /  1028.7hPa Calm     93% 0.00in /  0mm 0 W/m2
18:02 25.5 °F /  -3.6 °C 23.8 °F /  -4.6 °C 30.38in /  1028.7hPa Calm     93% 0.00in /  0mm 0 W/m2
18:08 25.4 °F /  -3.7 °C 23.7 °F /  -4.6 °C 30.38in /  1028.7hPa Calm     93% 0.00in /  0mm 0 W/m2
18:20 25.3 °F /  -3.7 °C 23.6 °F /  -4.7 °C 30.38in /  1028.7hPa Calm     93% 0.00in /  0mm 0 W/m2
18:26 25.3 °F /  -3.7 °C 23.6 °F /  -4.7 °C 30.38in /  1028.7hPa Calm     93% 0.00in /  0mm 0 W/m2
18:32 25.2 °F /  -3.8 °C 23.5 °F /  -4.7 °C 30.38in /  1028.7hPa Calm     93% 0.00in /  0mm 0 W/m2
18:38 25.2 °F /  -3.8 °C 23.5 °F /  -4.7 °C 30.38in /  1028.7hPa Calm     93% 0.00in /  0mm 0 W/m2
18:43 25.2 °F /  -3.8 °C 23.5 °F /  -4.7 °C 30.38in /  1028.7hPa Calm     93% 0.00in /  0mm 0 W/m2
18:50 25.1 °F /  -3.8 °C 23.4 °F /  -4.8 °C 30.38in /  1028.7hPa Calm     93% 0.00in /  0mm 0 W/m2
18:55 25.1 °F /  -3.8 °C 23.4 °F /  -4.8 °C 30.38in /  1028.7hPa Calm     93% 0.00in /  0mm 0 W/m2
19:02 25.1 °F /  -3.8 °C 23.4 °F /  -4.8 °C 30.38in /  1028.7hPa Calm     93% 0.00in /  0mm 0 W/m2
19:08 25.1 °F /  -3.8 °C 23.4 °F /  -4.8 °C 30.38in /  1028.7hPa Calm     93% 0.00in /  0mm 0 W/m2
19:13 25.0 °F /  -3.9 °C 23.3 °F /  -4.8 °C 30.38in /  1028.7hPa Calm     93% 0.00in /  0mm 0 W/m2
19:26 25.0 °F /  -3.9 °C 23.3 °F /  -4.8 °C 30.38in /  1028.7hPa Calm     93% 0.00in /  0mm 0 W/m2
19:32 24.9 °F /  -3.9 °C 23.2 °F /  -4.9 °C 30.38in /  1028.7hPa Calm     93% 0.00in /  0mm 0 W/m2
19:42 24.9 °F /  -3.9 °C 23.2 °F /  -4.9 °C 30.38in /  1028.7hPa Calm     93% 0.00in /  0mm 0 W/m2
19:48 24.9 °F /  -3.9 °C 23.2 °F /  -4.9 °C 30.38in /  1028.7hPa Calm     93% 0.00in /  0mm 0 W/m2
19:53 24.8 °F /  -4 °C 23.1 °F /  -4.9 °C 30.38in /  1028.7hPa Calm     93% 0.00in /  0mm 0 W/m2
19:59 24.8 °F /  -4 °C 23.1 °F /  -4.9 °C 30.38in /  1028.7hPa Calm     93% 0.00in /  0mm 0 W/m2
20:06 24.7 °F /  -4.1 °C 23.0 °F /  -5 °C 30.38in /  1028.7hPa Calm     93% 0.00in /  0mm 0 W/m2
20:12 24.7 °F /  -4.1 °C 23.0 °F /  -5 °C 30.38in /  1028.7hPa Calm     93% 0.00in /  0mm 0 W/m2
20:19 24.7 °F /  -4.1 °C 23.0 °F /  -5 °C 30.38in /  1028.7hPa Calm     93% 0.00in /  0mm 0 W/m2
20:33 24.5 °F /  -4.2 °C 22.8 °F /  -5.1 °C 30.38in /  1028.7hPa Calm     93% 0.00in /  0mm 0 W/m2
20:39 24.5 °F /  -4.2 °C 22.8 °F /  -5.1 °C 30.38in /  1028.7hPa Calm     93% 0.00in /  0mm 0 W/m2
20:46 24.5 °F /  -4.2 °C 22.8 °F /  -5.1 °C 30.38in /  1028.7hPa Calm     93% 0.00in /  0mm 0 W/m2
20:52 24.5 °F /  -4.2 °C 22.8 °F /  -5.1 °C 30.38in /  1028.7hPa Calm     93% 0.00in /  0mm 0 W/m2
20:58 24.5 °F /  -4.2 °C 22.8 °F /  -5.1 °C 30.37in /  1028.3hPa Calm     93% 0.00in /  0mm 0 W/m2
21:04 24.5 °F /  -4.2 °C 22.8 °F /  -5.1 °C 30.38in /  1028.7hPa Calm     93% 0.00in /  0mm 0 W/m2
21:12 24.5 °F /  -4.2 °C 22.8 °F /  -5.1 °C 30.37in /  1028.3hPa Calm   2.0mph /  3.2km/h 93% 0.00in /  0mm 0 W/m2
21:18 24.4 °F /  -4.2 °C 22.7 °F /  -5.2 °C 30.36in /  1028hPa WSW 1.0mph /  1.6km/h 2.0mph /  3.2km/h 93% 0.00in /  0mm 0 W/m2
21:23 24.3 °F /  -4.3 °C 22.6 °F /  -5.2 °C 30.36in /  1028hPa Calm   1.0mph /  1.6km/h 93% 0.00in /  0mm 0 W/m2
21:30 24.3 °F /  -4.3 °C 22.6 °F /  -5.2 °C 30.36in /  1028hPa Calm     93% 0.00in /  0mm 0 W/m2
21:39 24.2 °F /  -4.3 °C 22.5 °F /  -5.3 °C 30.36in /  1028hPa Calm     93% 0.00in /  0mm 0 W/m2
21:46 24.2 °F /  -4.3 °C 22.5 °F /  -5.3 °C 30.36in /  1028hPa Calm     93% 0.00in /  0mm 0 W/m2
21:52 24.1 °F /  -4.4 °C 22.4 °F /  -5.3 °C 30.36in /  1028hPa Calm     93% 0.00in /  0mm 0 W/m2
21:58 24.1 °F /  -4.4 °C 22.4 °F /  -5.3 °C 30.36in /  1028hPa Calm     93% 0.00in /  0mm 0 W/m2
22:04 24.1 °F /  -4.4 °C 22.4 °F /  -5.3 °C 30.36in /  1028hPa Calm     93% 0.00in /  0mm 0 W/m2
22:09 24.1 °F /  -4.4 °C 22.4 °F /  -5.3 °C 30.36in /  1028hPa Calm     93% 0.00in /  0mm 0 W/m2
22:16 24.1 °F /  -4.4 °C 22.4 °F /  -5.3 °C 30.36in /  1028hPa Calm     93% 0.00in /  0mm 0 W/m2
22:22 24.1 °F /  -4.4 °C 22.4 °F /  -5.3 °C 30.36in /  1028hPa Calm     93% 0.00in /  0mm 0 W/m2
22:28 24.0 °F /  -4.4 °C 22.3 °F /  -5.4 °C 30.35in /  1027.7hPa Calm     93% 0.00in /  0mm 0 W/m2
22:33 24.0 °F /  -4.4 °C 22.3 °F /  -5.4 °C 30.36in /  1028hPa Calm     93% 0.00in /  0mm 0 W/m2
22:42 23.9 °F /  -4.5 °C 22.2 °F /  -5.4 °C 30.35in /  1027.7hPa Calm     93% 0.00in /  0mm 0 W/m2
22:48 23.8 °F /  -4.6 °C 22.1 °F /  -5.5 °C 30.35in /  1027.7hPa Calm     93% 0.00in /  0mm 0 W/m2
22:54 23.7 °F /  -4.6 °C 22.0 °F /  -5.6 °C 30.36in /  1028hPa Calm     93% 0.00in /  0mm 0 W/m2
22:59 23.6 °F /  -4.7 °C 21.9 °F /  -5.6 °C 30.35in /  1027.7hPa Calm     93% 0.00in /  0mm 0 W/m2
23:05 23.5 °F /  -4.7 °C 21.8 °F /  -5.7 °C 30.35in /  1027.7hPa Calm     93% 0.00in /  0mm 0 W/m2
23:12 23.3 °F /  -4.8 °C 21.6 °F /  -5.8 °C 30.35in /  1027.7hPa Calm     93% 0.00in /  0mm 0 W/m2
23:18 23.0 °F /  -5 °C 21.3 °F /  -5.9 °C 30.35in /  1027.7hPa Calm     93% 0.00in /  0mm 0 W/m2
23:28 22.7 °F /  -5.2 °C 21.0 °F /  -6.1 °C 30.35in /  1027.7hPa Calm     93% 0.00in /  0mm 0 W/m2
23:36 22.4 °F /  -5.3 °C 20.7 °F /  -6.3 °C 30.34in /  1027.3hPa Calm     93% 0.00in /  0mm 0 W/m2
23:42 22.1 °F /  -5.5 °C 20.4 °F /  -6.4 °C 30.34in /  1027.3hPa Calm     93% 0.00in /  0mm 0 W/m2
23:48 21.9 °F /  -5.6 °C 20.2 °F /  -6.6 °C 30.34in /  1027.3hPa Calm     93% 0.00in /  0mm 0 W/m2
Country Meadow, Clay, NY, USA
Compliments of Weather Underground - 2 mb